sensor_id;sensor_type;location;lat;lon;timestamp;P1;durP1;ratioP1;P2;durP2;ratioP2
25687;SDS011;17407;51.120;3.702;2023-06-24T00:01:27;11.23;;;8.15;;
25687;SDS011;17407;51.120;3.702;2023-06-24T00:03:53;13.60;;;8.52;;
25687;SDS011;17407;51.120;3.702;2023-06-24T00:06:19;12.52;;;8.15;;
25687;SDS011;17407;51.120;3.702;2023-06-24T00:08:45;11.60;;;8.13;;
25687;SDS011;17407;51.120;3.702;2023-06-24T00:11:11;14.40;;;9.02;;
25687;SDS011;17407;51.120;3.702;2023-06-24T00:13:40;12.05;;;8.50;;
25687;SDS011;17407;51.120;3.702;2023-06-24T00:16:07;10.13;;;8.20;;
25687;SDS011;17407;51.120;3.702;2023-06-24T00:18:33;9.38;;;8.15;;
25687;SDS011;17407;51.120;3.702;2023-06-24T00:21:00;12.65;;;9.45;;
25687;SDS011;17407;51.120;3.702;2023-06-24T00:23:27;14.50;;;9.82;;
25687;SDS011;17407;51.120;3.702;2023-06-24T00:25:55;9.82;;;8.63;;
25687;SDS011;17407;51.120;3.702;2023-06-24T00:28:21;11.95;;;8.88;;
25687;SDS011;17407;51.120;3.702;2023-06-24T00:30:48;12.85;;;8.57;;
25687;SDS011;17407;51.120;3.702;2023-06-24T00:33:14;10.35;;;8.18;;
25687;SDS011;17407;51.120;3.702;2023-06-24T00:35:44;9.88;;;7.97;;
25687;SDS011;17407;51.120;3.702;2023-06-24T00:38:11;12.75;;;8.95;;
25687;SDS011;17407;51.120;3.702;2023-06-24T00:40:37;12.00;;;8.52;;
25687;SDS011;17407;51.120;3.702;2023-06-24T00:43:03;11.13;;;8.88;;
25687;SDS011;17407;51.120;3.702;2023-06-24T00:45:31;14.60;;;10.40;;
25687;SDS011;17407;51.120;3.702;2023-06-24T00:47:59;13.13;;;9.10;;
25687;SDS011;17407;51.120;3.702;2023-06-24T00:50:26;12.45;;;8.85;;
25687;SDS011;17407;51.120;3.702;2023-06-24T00:52:51;12.13;;;9.18;;
25687;SDS011;17407;51.120;3.702;2023-06-24T00:55:17;10.68;;;8.63;;
25687;SDS011;17407;51.120;3.702;2023-06-24T00:57:46;9.65;;;8.23;;
25687;SDS011;17407;51.120;3.702;2023-06-24T01:00:16;12.95;;;8.77;;
25687;SDS011;17407;51.120;3.702;2023-06-24T01:02:43;11.77;;;9.18;;
25687;SDS011;17407;51.120;3.702;2023-06-24T01:05:12;14.20;;;10.00;;
25687;SDS011;17407;51.120;3.702;2023-06-24T01:07:38;12.85;;;8.40;;
25687;SDS011;17407;51.120;3.702;2023-06-24T01:10:04;10.48;;;7.47;;
25687;SDS011;17407;51.120;3.702;2023-06-24T01:12:36;9.63;;;7.10;;
25687;SDS011;17407;51.120;3.702;2023-06-24T01:15:09;13.02;;;8.57;;
25687;SDS011;17407;51.120;3.702;2023-06-24T01:23:24;13.05;;;8.38;;
25687;SDS011;17407;51.120;3.702;2023-06-24T01:31:34;10.07;;;7.10;;
25687;SDS011;17407;51.120;3.702;2023-06-24T01:34:36;10.38;;;8.13;;
25687;SDS011;17407;51.120;3.702;2023-06-24T01:37:12;10.77;;;7.78;;
25687;SDS011;17407;51.120;3.702;2023-06-24T01:39:47;13.40;;;7.53;;
25687;SDS011;17407;51.120;3.702;2023-06-24T01:42:17;13.85;;;8.40;;
25687;SDS011;17407;51.120;3.702;2023-06-24T01:44:47;10.23;;;8.25;;
25687;SDS011;17407;51.120;3.702;2023-06-24T01:47:14;9.70;;;7.55;;
25687;SDS011;17407;51.120;3.702;2023-06-24T01:49:43;11.60;;;8.55;;
25687;SDS011;17407;51.120;3.702;2023-06-24T01:52:10;12.65;;;8.90;;
25687;SDS011;17407;51.120;3.702;2023-06-24T01:54:41;12.00;;;9.15;;
25687;SDS011;17407;51.120;3.702;2023-06-24T01:57:08;14.05;;;8.63;;
25687;SDS011;17407;51.120;3.702;2023-06-24T01:59:35;11.52;;;8.27;;
25687;SDS011;17407;51.120;3.702;2023-06-24T02:02:05;11.20;;;8.80;;
25687;SDS011;17407;51.120;3.702;2023-06-24T02:04:32;11.23;;;8.25;;
25687;SDS011;17407;51.120;3.702;2023-06-24T02:07:02;11.15;;;7.45;;
25687;SDS011;17407;51.120;3.702;2023-06-24T02:09:29;9.48;;;7.60;;
25687;SDS011;17407;51.120;3.702;2023-06-24T02:11:57;11.18;;;7.88;;
25687;SDS011;17407;51.120;3.702;2023-06-24T02:14:25;12.88;;;8.60;;
25687;SDS011;17407;51.120;3.702;2023-06-24T02:16:52;12.23;;;8.07;;
25687;SDS011;17407;51.120;3.702;2023-06-24T02:19:21;10.95;;;8.48;;
25687;SDS011;17407;51.120;3.702;2023-06-24T02:21:52;14.70;;;9.27;;
25687;SDS011;17407;51.120;3.702;2023-06-24T02:24:19;14.63;;;9.80;;
25687;SDS011;17407;51.120;3.702;2023-06-24T02:26:45;15.40;;;10.82;;
25687;SDS011;17407;51.120;3.702;2023-06-24T02:29:12;15.40;;;11.52;;
25687;SDS011;17407;51.120;3.702;2023-06-24T02:31:38;17.77;;;11.68;;
25687;SDS011;17407;51.120;3.702;2023-06-24T02:34:04;17.23;;;11.13;;
25687;SDS011;17407;51.120;3.702;2023-06-24T02:36:30;16.15;;;11.07;;
25687;SDS011;17407;51.120;3.702;2023-06-24T02:38:56;14.13;;;10.55;;
25687;SDS011;17407;51.120;3.702;2023-06-24T02:41:22;13.15;;;10.70;;
25687;SDS011;17407;51.120;3.702;2023-06-24T02:43:50;18.10;;;10.45;;
25687;SDS011;17407;51.120;3.702;2023-06-24T02:46:16;12.75;;;10.32;;
25687;SDS011;17407;51.120;3.702;2023-06-24T02:48:42;14.18;;;10.00;;
25687;SDS011;17407;51.120;3.702;2023-06-24T02:51:10;15.93;;;10.63;;
25687;SDS011;17407;51.120;3.702;2023-06-24T02:53:37;11.70;;;9.50;;
25687;SDS011;17407;51.120;3.702;2023-06-24T02:56:04;18.30;;;10.70;;
25687;SDS011;17407;51.120;3.702;2023-06-24T02:58:32;13.02;;;10.00;;
25687;SDS011;17407;51.120;3.702;2023-06-24T03:01:01;17.77;;;10.27;;
25687;SDS011;17407;51.120;3.702;2023-06-24T03:03:31;11.70;;;9.75;;
25687;SDS011;17407;51.120;3.702;2023-06-24T03:05:57;14.98;;;10.23;;
25687;SDS011;17407;51.120;3.702;2023-06-24T03:08:24;13.05;;;9.45;;
25687;SDS011;17407;51.120;3.702;2023-06-24T03:10:53;14.95;;;9.55;;
25687;SDS011;17407;51.120;3.702;2023-06-24T03:13:20;15.48;;;10.30;;
25687;SDS011;17407;51.120;3.702;2023-06-24T03:15:45;14.50;;;9.43;;
25687;SDS011;17407;51.120;3.702;2023-06-24T03:18:11;13.57;;;10.27;;
25687;SDS011;17407;51.120;3.702;2023-06-24T03:20:37;13.77;;;10.15;;
25687;SDS011;17407;51.120;3.702;2023-06-24T03:23:04;13.13;;;10.07;;
25687;SDS011;17407;51.120;3.702;2023-06-24T03:25:33;13.75;;;10.23;;
25687;SDS011;17407;51.120;3.702;2023-06-24T03:27:59;14.88;;;10.38;;
25687;SDS011;17407;51.120;3.702;2023-06-24T03:30:43;16.98;;;11.00;;
25687;SDS011;17407;51.120;3.702;2023-06-24T03:33:09;15.40;;;10.68;;
25687;SDS011;17407;51.120;3.702;2023-06-24T03:35:34;16.25;;;11.02;;
25687;SDS011;17407;51.120;3.702;2023-06-24T03:38:00;19.50;;;10.05;;
25687;SDS011;17407;51.120;3.702;2023-06-24T03:40:25;13.68;;;10.48;;
25687;SDS011;17407;51.120;3.702;2023-06-24T03:42:51;17.98;;;10.65;;
25687;SDS011;17407;51.120;3.702;2023-06-24T03:45:17;14.70;;;10.57;;
25687;SDS011;17407;51.120;3.702;2023-06-24T03:47:42;16.35;;;10.82;;
25687;SDS011;17407;51.120;3.702;2023-06-24T03:50:08;17.77;;;10.60;;
25687;SDS011;17407;51.120;3.702;2023-06-24T03:52:34;13.70;;;10.27;;
25687;SDS011;17407;51.120;3.702;2023-06-24T03:54:59;12.18;;;10.27;;
25687;SDS011;17407;51.120;3.702;2023-06-24T03:57:26;14.88;;;10.25;;
25687;SDS011;17407;51.120;3.702;2023-06-24T03:59:52;15.85;;;10.48;;
25687;SDS011;17407;51.120;3.702;2023-06-24T04:02:17;15.63;;;10.73;;
25687;SDS011;17407;51.120;3.702;2023-06-24T04:04:43;16.08;;;10.43;;
25687;SDS011;17407;51.120;3.702;2023-06-24T04:07:09;16.10;;;11.38;;
25687;SDS011;17407;51.120;3.702;2023-06-24T04:09:34;16.38;;;10.95;;
25687;SDS011;17407;51.120;3.702;2023-06-24T04:12:00;14.70;;;10.65;;
25687;SDS011;17407;51.120;3.702;2023-06-24T04:14:26;13.40;;;11.18;;
25687;SDS011;17407;51.120;3.702;2023-06-24T04:16:53;16.90;;;11.68;;
25687;SDS011;17407;51.120;3.702;2023-06-24T04:19:19;21.33;;;11.13;;
25687;SDS011;17407;51.120;3.702;2023-06-24T04:21:44;18.08;;;11.65;;
25687;SDS011;17407;51.120;3.702;2023-06-24T04:24:10;13.93;;;11.07;;
25687;SDS011;17407;51.120;3.702;2023-06-24T04:26:36;20.58;;;12.30;;
25687;SDS011;17407;51.120;3.702;2023-06-24T04:29:01;16.30;;;11.60;;
25687;SDS011;17407;51.120;3.702;2023-06-24T04:31:27;16.55;;;11.65;;
25687;SDS011;17407;51.120;3.702;2023-06-24T04:33:53;17.60;;;11.85;;
25687;SDS011;17407;51.120;3.702;2023-06-24T04:36:19;16.48;;;11.75;;
25687;SDS011;17407;51.120;3.702;2023-06-24T04:38:44;16.88;;;11.45;;
25687;SDS011;17407;51.120;3.702;2023-06-24T04:41:10;19.73;;;11.93;;
25687;SDS011;17407;51.120;3.702;2023-06-24T04:43:36;18.40;;;11.63;;
25687;SDS011;17407;51.120;3.702;2023-06-24T04:46:01;15.23;;;11.18;;
25687;SDS011;17407;51.120;3.702;2023-06-24T04:48:27;19.13;;;11.65;;
25687;SDS011;17407;51.120;3.702;2023-06-24T04:50:53;16.80;;;12.15;;
25687;SDS011;17407;51.120;3.702;2023-06-24T04:53:20;15.27;;;12.05;;
25687;SDS011;17407;51.120;3.702;2023-06-24T04:55:46;17.73;;;11.85;;
25687;SDS011;17407;51.120;3.702;2023-06-24T04:58:12;15.82;;;11.13;;
25687;SDS011;17407;51.120;3.702;2023-06-24T05:00:37;16.65;;;11.60;;
25687;SDS011;17407;51.120;3.702;2023-06-24T05:03:03;19.23;;;11.68;;
25687;SDS011;17407;51.120;3.702;2023-06-24T05:05:28;16.35;;;12.30;;
25687;SDS011;17407;51.120;3.702;2023-06-24T05:07:54;16.02;;;11.90;;
25687;SDS011;17407;51.120;3.702;2023-06-24T05:10:20;17.35;;;11.95;;
25687;SDS011;17407;51.120;3.702;2023-06-24T05:12:45;21.00;;;13.50;;
25687;SDS011;17407;51.120;3.702;2023-06-24T05:15:11;15.80;;;11.43;;
25687;SDS011;17407;51.120;3.702;2023-06-24T05:17:37;17.85;;;11.70;;
25687;SDS011;17407;51.120;3.702;2023-06-24T05:20:02;16.08;;;12.02;;
25687;SDS011;17407;51.120;3.702;2023-06-24T05:22:28;17.15;;;12.15;;
25687;SDS011;17407;51.120;3.702;2023-06-24T05:24:54;19.00;;;12.63;;
25687;SDS011;17407;51.120;3.702;2023-06-24T05:27:20;19.50;;;12.95;;
25687;SDS011;17407;51.120;3.702;2023-06-24T05:29:45;16.83;;;12.52;;
25687;SDS011;17407;51.120;3.702;2023-06-24T05:32:11;18.08;;;12.70;;
25687;SDS011;17407;51.120;3.702;2023-06-24T05:34:37;15.52;;;12.38;;
25687;SDS011;17407;51.120;3.702;2023-06-24T05:37:02;20.75;;;12.38;;
25687;SDS011;17407;51.120;3.702;2023-06-24T05:39:29;20.42;;;12.10;;
25687;SDS011;17407;51.120;3.702;2023-06-24T05:41:56;16.58;;;12.05;;
25687;SDS011;17407;51.120;3.702;2023-06-24T05:44:21;17.92;;;13.25;;
25687;SDS011;17407;51.120;3.702;2023-06-24T05:46:48;17.45;;;13.18;;
25687;SDS011;17407;51.120;3.702;2023-06-24T05:49:14;18.48;;;12.85;;
25687;SDS011;17407;51.120;3.702;2023-06-24T05:51:39;16.73;;;13.60;;
25687;SDS011;17407;51.120;3.702;2023-06-24T05:54:05;19.25;;;13.00;;
25687;SDS011;17407;51.120;3.702;2023-06-24T05:56:32;19.15;;;13.18;;
25687;SDS011;17407;51.120;3.702;2023-06-24T05:58:58;17.40;;;13.73;;
25687;SDS011;17407;51.120;3.702;2023-06-24T06:01:25;20.23;;;13.15;;
25687;SDS011;17407;51.120;3.702;2023-06-24T06:03:51;18.98;;;13.73;;
25687;SDS011;17407;51.120;3.702;2023-06-24T06:06:16;19.25;;;13.80;;
25687;SDS011;17407;51.120;3.702;2023-06-24T06:08:42;18.58;;;14.20;;
25687;SDS011;17407;51.120;3.702;2023-06-24T06:11:07;18.70;;;14.05;;
25687;SDS011;17407;51.120;3.702;2023-06-24T06:13:33;22.23;;;15.38;;
25687;SDS011;17407;51.120;3.702;2023-06-24T06:15:59;22.45;;;15.55;;
25687;SDS011;17407;51.120;3.702;2023-06-24T06:18:25;22.17;;;15.85;;
25687;SDS011;17407;51.120;3.702;2023-06-24T06:20:50;24.50;;;15.25;;
25687;SDS011;17407;51.120;3.702;2023-06-24T06:23:16;21.00;;;15.57;;
25687;SDS011;17407;51.120;3.702;2023-06-24T06:25:42;20.92;;;16.35;;
25687;SDS011;17407;51.120;3.702;2023-06-24T06:28:08;21.88;;;16.63;;
25687;SDS011;17407;51.120;3.702;2023-06-24T06:30:33;21.73;;;16.23;;
25687;SDS011;17407;51.120;3.702;2023-06-24T06:32:59;25.45;;;17.20;;
25687;SDS011;17407;51.120;3.702;2023-06-24T06:35:25;23.60;;;17.00;;
25687;SDS011;17407;51.120;3.702;2023-06-24T06:37:50;23.02;;;17.52;;
25687;SDS011;17407;51.120;3.702;2023-06-24T06:40:22;25.40;;;16.15;;
25687;SDS011;17407;51.120;3.702;2023-06-24T06:42:48;24.38;;;17.70;;
25687;SDS011;17407;51.120;3.702;2023-06-24T06:45:14;22.20;;;17.83;;
25687;SDS011;17407;51.120;3.702;2023-06-24T06:47:39;27.40;;;18.65;;
25687;SDS011;17407;51.120;3.702;2023-06-24T06:50:05;23.58;;;18.00;;
25687;SDS011;17407;51.120;3.702;2023-06-24T06:52:32;23.48;;;18.33;;
25687;SDS011;17407;51.120;3.702;2023-06-24T06:54:58;23.33;;;18.30;;
25687;SDS011;17407;51.120;3.702;2023-06-24T06:57:24;25.35;;;18.70;;
25687;SDS011;17407;51.120;3.702;2023-06-24T06:59:50;24.30;;;18.40;;
25687;SDS011;17407;51.120;3.702;2023-06-24T07:02:16;23.80;;;17.92;;
25687;SDS011;17407;51.120;3.702;2023-06-24T07:04:43;26.48;;;18.65;;
25687;SDS011;17407;51.120;3.702;2023-06-24T07:07:09;22.88;;;17.20;;
25687;SDS011;17407;51.120;3.702;2023-06-24T07:09:34;24.85;;;18.13;;
25687;SDS011;17407;51.120;3.702;2023-06-24T07:12:00;27.10;;;19.85;;
25687;SDS011;17407;51.120;3.702;2023-06-24T07:14:26;27.20;;;20.88;;
25687;SDS011;17407;51.120;3.702;2023-06-24T07:16:52;25.73;;;19.90;;
25687;SDS011;17407;51.120;3.702;2023-06-24T07:19:18;27.77;;;21.20;;
25687;SDS011;17407;51.120;3.702;2023-06-24T07:21:43;27.90;;;20.52;;
25687;SDS011;17407;51.120;3.702;2023-06-24T07:24:09;27.88;;;22.48;;
25687;SDS011;17407;51.120;3.702;2023-06-24T07:26:34;26.50;;;21.52;;
25687;SDS011;17407;51.120;3.702;2023-06-24T07:29:00;23.60;;;19.85;;
25687;SDS011;17407;51.120;3.702;2023-06-24T07:31:26;25.08;;;19.88;;
25687;SDS011;17407;51.120;3.702;2023-06-24T07:33:51;25.15;;;19.23;;
25687;SDS011;17407;51.120;3.702;2023-06-24T07:36:17;29.48;;;21.73;;
25687;SDS011;17407;51.120;3.702;2023-06-24T07:38:44;27.02;;;20.33;;
25687;SDS011;17407;51.120;3.702;2023-06-24T07:41:09;27.15;;;19.63;;
25687;SDS011;17407;51.120;3.702;2023-06-24T07:43:35;23.00;;;18.73;;
25687;SDS011;17407;51.120;3.702;2023-06-24T07:46:00;23.90;;;19.05;;
25687;SDS011;17407;51.120;3.702;2023-06-24T07:48:27;28.98;;;19.52;;
25687;SDS011;17407;51.120;3.702;2023-06-24T07:50:53;25.98;;;20.83;;
25687;SDS011;17407;51.120;3.702;2023-06-24T07:53:18;27.50;;;19.90;;
25687;SDS011;17407;51.120;3.702;2023-06-24T07:55:44;22.70;;;19.35;;
25687;SDS011;17407;51.120;3.702;2023-06-24T07:58:09;27.73;;;19.45;;
25687;SDS011;17407;51.120;3.702;2023-06-24T08:00:35;21.92;;;18.00;;
25687;SDS011;17407;51.120;3.702;2023-06-24T08:03:01;24.90;;;19.13;;
25687;SDS011;17407;51.120;3.702;2023-06-24T08:05:27;23.40;;;19.30;;
25687;SDS011;17407;51.120;3.702;2023-06-24T08:07:53;23.77;;;19.60;;
25687;SDS011;17407;51.120;3.702;2023-06-24T08:10:19;22.05;;;18.73;;
25687;SDS011;17407;51.120;3.702;2023-06-24T08:12:44;22.55;;;18.02;;
25687;SDS011;17407;51.120;3.702;2023-06-24T08:15:10;21.63;;;17.88;;
25687;SDS011;17407;51.120;3.702;2023-06-24T08:17:36;23.80;;;18.00;;
25687;SDS011;17407;51.120;3.702;2023-06-24T08:20:02;24.23;;;17.98;;
25687;SDS011;17407;51.120;3.702;2023-06-24T08:22:29;23.17;;;17.73;;
25687;SDS011;17407;51.120;3.702;2023-06-24T08:24:55;20.00;;;16.45;;
25687;SDS011;17407;51.120;3.702;2023-06-24T08:27:20;22.50;;;17.98;;
25687;SDS011;17407;51.120;3.702;2023-06-24T08:29:46;22.27;;;18.13;;
25687;SDS011;17407;51.120;3.702;2023-06-24T08:32:11;22.83;;;16.20;;
25687;SDS011;17407;51.120;3.702;2023-06-24T08:34:37;23.48;;;18.30;;
25687;SDS011;17407;51.120;3.702;2023-06-24T08:37:03;21.20;;;16.30;;
25687;SDS011;17407;51.120;3.702;2023-06-24T08:39:28;23.58;;;16.27;;
25687;SDS011;17407;51.120;3.702;2023-06-24T08:41:54;20.13;;;16.38;;
25687;SDS011;17407;51.120;3.702;2023-06-24T08:44:20;20.92;;;16.05;;
25687;SDS011;17407;51.120;3.702;2023-06-24T08:46:46;23.33;;;16.15;;
25687;SDS011;17407;51.120;3.702;2023-06-24T08:49:31;20.30;;;14.77;;
25687;SDS011;17407;51.120;3.702;2023-06-24T08:52:11;22.83;;;17.00;;
25687;SDS011;17407;51.120;3.702;2023-06-24T08:54:39;22.95;;;16.67;;
25687;SDS011;17407;51.120;3.702;2023-06-24T08:57:06;23.15;;;16.20;;
25687;SDS011;17407;51.120;3.702;2023-06-24T08:59:36;20.38;;;15.50;;
25687;SDS011;17407;51.120;3.702;2023-06-24T09:02:02;21.88;;;15.02;;
25687;SDS011;17407;51.120;3.702;2023-06-24T09:04:28;20.65;;;15.40;;
25687;SDS011;17407;51.120;3.702;2023-06-24T09:06:54;16.92;;;14.88;;
25687;SDS011;17407;51.120;3.702;2023-06-24T09:09:20;22.15;;;15.88;;
25687;SDS011;17407;51.120;3.702;2023-06-24T09:14:26;18.70;;;16.17;;
25687;SDS011;17407;51.120;3.702;2023-06-24T09:16:58;22.13;;;15.32;;
25687;SDS011;17407;51.120;3.702;2023-06-24T09:19:26;18.73;;;15.68;;
25687;SDS011;17407;51.120;3.702;2023-06-24T09:21:54;19.23;;;16.33;;
25687;SDS011;17407;51.120;3.702;2023-06-24T09:24:27;18.85;;;16.75;;
25687;SDS011;17407;51.120;3.702;2023-06-24T09:26:55;19.52;;;14.65;;
25687;SDS011;17407;51.120;3.702;2023-06-24T09:29:25;19.00;;;13.85;;
25687;SDS011;17407;51.120;3.702;2023-06-24T09:31:56;22.23;;;15.68;;
25687;SDS011;17407;51.120;3.702;2023-06-24T09:34:23;14.43;;;11.98;;
25687;SDS011;17407;51.120;3.702;2023-06-24T09:36:52;19.35;;;13.82;;
25687;SDS011;17407;51.120;3.702;2023-06-24T09:39:21;17.10;;;14.25;;
25687;SDS011;17407;51.120;3.702;2023-06-24T09:41:53;17.23;;;13.80;;
25687;SDS011;17407;51.120;3.702;2023-06-24T09:44:23;18.17;;;12.27;;
25687;SDS011;17407;51.120;3.702;2023-06-24T09:46:48;22.10;;;13.13;;
25687;SDS011;17407;51.120;3.702;2023-06-24T09:49:14;17.60;;;13.23;;
25687;SDS011;17407;51.120;3.702;2023-06-24T09:51:44;14.40;;;12.38;;
25687;SDS011;17407;51.120;3.702;2023-06-24T09:54:12;13.73;;;11.18;;
25687;SDS011;17407;51.120;3.702;2023-06-24T09:56:42;14.90;;;12.23;;
25687;SDS011;17407;51.120;3.702;2023-06-24T09:59:09;14.68;;;11.23;;
25687;SDS011;17407;51.120;3.702;2023-06-24T10:01:38;14.50;;;12.30;;
25687;SDS011;17407;51.120;3.702;2023-06-24T10:04:07;14.20;;;12.25;;
25687;SDS011;17407;51.120;3.702;2023-06-24T10:06:34;17.63;;;10.93;;
25687;SDS011;17407;51.120;3.702;2023-06-24T10:09:00;12.60;;;10.68;;
25687;SDS011;17407;51.120;3.702;2023-06-24T10:11:26;12.07;;;10.77;;
25687;SDS011;17407;51.120;3.702;2023-06-24T10:13:52;12.02;;;9.90;;
25687;SDS011;17407;51.120;3.702;2023-06-24T10:16:19;12.20;;;10.15;;
25687;SDS011;17407;51.120;3.702;2023-06-24T10:18:45;10.93;;;8.80;;
25687;SDS011;17407;51.120;3.702;2023-06-24T10:21:11;12.25;;;10.68;;
25687;SDS011;17407;51.120;3.702;2023-06-24T10:26:11;11.93;;;9.43;;
25687;SDS011;17407;51.120;3.702;2023-06-24T10:37:22;12.30;;;8.27;;
25687;SDS011;17407;51.120;3.702;2023-06-24T10:42:36;9.38;;;7.95;;
25687;SDS011;17407;51.120;3.702;2023-06-24T10:47:34;8.68;;;7.07;;
25687;SDS011;17407;51.120;3.702;2023-06-24T10:50:11;11.60;;;7.13;;
25687;SDS011;17407;51.120;3.702;2023-06-24T10:52:44;8.05;;;6.63;;
25687;SDS011;17407;51.120;3.702;2023-06-24T10:55:13;6.68;;;4.35;;
25687;SDS011;17407;51.120;3.702;2023-06-24T10:57:43;9.80;;;4.82;;
25687;SDS011;17407;51.120;3.702;2023-06-24T11:00:10;4.30;;;3.90;;
25687;SDS011;17407;51.120;3.702;2023-06-24T11:02:37;5.80;;;5.20;;
25687;SDS011;17407;51.120;3.702;2023-06-24T11:05:03;10.95;;;5.25;;
25687;SDS011;17407;51.120;3.702;2023-06-24T11:07:38;6.25;;;5.72;;
25687;SDS011;17407;51.120;3.702;2023-06-24T11:10:05;5.55;;;3.75;;
25687;SDS011;17407;51.120;3.702;2023-06-24T11:12:40;8.18;;;5.10;;
25687;SDS011;17407;51.120;3.702;2023-06-24T11:15:07;6.75;;;5.50;;
25687;SDS011;17407;51.120;3.702;2023-06-24T11:17:34;9.70;;;7.07;;
25687;SDS011;17407;51.120;3.702;2023-06-24T11:20:01;10.55;;;8.82;;
25687;SDS011;17407;51.120;3.702;2023-06-24T11:22:31;8.88;;;7.97;;
25687;SDS011;17407;51.120;3.702;2023-06-24T11:24:56;12.23;;;9.27;;
25687;SDS011;17407;51.120;3.702;2023-06-24T11:27:26;11.15;;;10.05;;
25687;SDS011;17407;51.120;3.702;2023-06-24T11:29:53;10.18;;;6.28;;
25687;SDS011;17407;51.120;3.702;2023-06-24T11:32:20;7.18;;;6.45;;
25687;SDS011;17407;51.120;3.702;2023-06-24T11:34:46;11.55;;;8.05;;
25687;SDS011;17407;51.120;3.702;2023-06-24T11:37:13;10.93;;;7.65;;
25687;SDS011;17407;51.120;3.702;2023-06-24T11:39:42;8.75;;;7.53;;
25687;SDS011;17407;51.120;3.702;2023-06-24T11:42:08;9.45;;;8.45;;
25687;SDS011;17407;51.120;3.702;2023-06-24T11:44:35;11.75;;;10.10;;
25687;SDS011;17407;51.120;3.702;2023-06-24T11:49:54;12.35;;;10.00;;
25687;SDS011;17407;51.120;3.702;2023-06-24T11:55:10;12.45;;;11.32;;
25687;SDS011;17407;51.120;3.702;2023-06-24T12:00:14;10.73;;;9.60;;
25687;SDS011;17407;51.120;3.702;2023-06-24T12:02:40;12.40;;;9.30;;
25687;SDS011;17407;51.120;3.702;2023-06-24T12:05:06;11.40;;;10.30;;
25687;SDS011;17407;51.120;3.702;2023-06-24T12:07:32;12.63;;;10.57;;
25687;SDS011;17407;51.120;3.702;2023-06-24T12:09:57;13.07;;;11.48;;
25687;SDS011;17407;51.120;3.702;2023-06-24T12:12:23;12.20;;;10.98;;
25687;SDS011;17407;51.120;3.702;2023-06-24T12:14:49;13.48;;;12.07;;
25687;SDS011;17407;51.120;3.702;2023-06-24T12:17:14;12.38;;;10.52;;
25687;SDS011;17407;51.120;3.702;2023-06-24T12:19:40;11.02;;;9.95;;
25687;SDS011;17407;51.120;3.702;2023-06-24T12:22:07;11.35;;;9.02;;
25687;SDS011;17407;51.120;3.702;2023-06-24T12:24:32;10.40;;;8.15;;
25687;SDS011;17407;51.120;3.702;2023-06-24T12:26:58;11.05;;;9.02;;
25687;SDS011;17407;51.120;3.702;2023-06-24T12:29:24;10.20;;;7.72;;
25687;SDS011;17407;51.120;3.702;2023-06-24T12:31:49;12.20;;;8.38;;
25687;SDS011;17407;51.120;3.702;2023-06-24T12:34:15;12.07;;;9.18;;
25687;SDS011;17407;51.120;3.702;2023-06-24T12:36:41;9.98;;;8.50;;
25687;SDS011;17407;51.120;3.702;2023-06-24T12:39:06;7.32;;;6.45;;
25687;SDS011;17407;51.120;3.702;2023-06-24T12:41:32;10.45;;;6.40;;
25687;SDS011;17407;51.120;3.702;2023-06-24T12:43:58;6.53;;;5.88;;
25687;SDS011;17407;51.120;3.702;2023-06-24T12:46:24;5.78;;;3.95;;
25687;SDS011;17407;51.120;3.702;2023-06-24T12:48:49;5.15;;;4.65;;
25687;SDS011;17407;51.120;3.702;2023-06-24T12:51:15;5.10;;;3.95;;
25687;SDS011;17407;51.120;3.702;2023-06-24T12:53:41;4.82;;;4.35;;
25687;SDS011;17407;51.120;3.702;2023-06-24T12:56:06;7.90;;;6.50;;
25687;SDS011;17407;51.120;3.702;2023-06-24T12:58:33;8.40;;;5.75;;
25687;SDS011;17407;51.120;3.702;2023-06-24T13:00:59;6.00;;;5.47;;
25687;SDS011;17407;51.120;3.702;2023-06-24T13:03:25;7.03;;;4.57;;
25687;SDS011;17407;51.120;3.702;2023-06-24T13:05:50;6.75;;;6.10;;
25687;SDS011;17407;51.120;3.702;2023-06-24T13:08:16;6.85;;;6.10;;
25687;SDS011;17407;51.120;3.702;2023-06-24T13:10:42;7.25;;;5.70;;
25687;SDS011;17407;51.120;3.702;2023-06-24T13:13:08;7.38;;;5.60;;
25687;SDS011;17407;51.120;3.702;2023-06-24T13:15:33;6.97;;;5.20;;
25687;SDS011;17407;51.120;3.702;2023-06-24T13:18:01;8.77;;;7.28;;
25687;SDS011;17407;51.120;3.702;2023-06-24T13:20:30;9.77;;;5.70;;
25687;SDS011;17407;51.120;3.702;2023-06-24T13:22:55;8.30;;;7.50;;
25687;SDS011;17407;51.120;3.702;2023-06-24T13:25:21;7.05;;;6.35;;
25687;SDS011;17407;51.120;3.702;2023-06-24T13:27:47;8.05;;;7.00;;
25687;SDS011;17407;51.120;3.702;2023-06-24T13:30:13;7.10;;;6.03;;
25687;SDS011;17407;51.120;3.702;2023-06-24T13:32:40;7.85;;;7.07;;
25687;SDS011;17407;51.120;3.702;2023-06-24T13:35:06;11.73;;;8.27;;
25687;SDS011;17407;51.120;3.702;2023-06-24T13:37:32;11.35;;;7.38;;
25687;SDS011;17407;51.120;3.702;2023-06-24T13:39:57;8.43;;;7.60;;
25687;SDS011;17407;51.120;3.702;2023-06-24T13:42:23;9.68;;;7.20;;
25687;SDS011;17407;51.120;3.702;2023-06-24T13:44:50;9.32;;;6.47;;
25687;SDS011;17407;51.120;3.702;2023-06-24T13:47:16;7.78;;;7.07;;
25687;SDS011;17407;51.120;3.702;2023-06-24T13:49:43;9.35;;;8.00;;
25687;SDS011;17407;51.120;3.702;2023-06-24T13:52:08;7.65;;;6.30;;
25687;SDS011;17407;51.120;3.702;2023-06-24T13:54:34;8.15;;;5.88;;
25687;SDS011;17407;51.120;3.702;2023-06-24T13:57:00;8.10;;;6.15;;
25687;SDS011;17407;51.120;3.702;2023-06-24T13:59:26;9.65;;;6.93;;
25687;SDS011;17407;51.120;3.702;2023-06-24T14:01:52;7.53;;;5.65;;
25687;SDS011;17407;51.120;3.702;2023-06-24T14:04:18;10.07;;;4.80;;
25687;SDS011;17407;51.120;3.702;2023-06-24T14:06:44;9.80;;;5.55;;
25687;SDS011;17407;51.120;3.702;2023-06-24T14:09:11;6.93;;;6.10;;
25687;SDS011;17407;51.120;3.702;2023-06-24T14:11:37;8.15;;;6.28;;
25687;SDS011;17407;51.120;3.702;2023-06-24T14:14:03;7.35;;;5.90;;
25687;SDS011;17407;51.120;3.702;2023-06-24T14:16:28;7.35;;;6.30;;
25687;SDS011;17407;51.120;3.702;2023-06-24T14:18:54;6.93;;;6.30;;
25687;SDS011;17407;51.120;3.702;2023-06-24T14:21:20;6.65;;;5.40;;
25687;SDS011;17407;51.120;3.702;2023-06-24T14:23:45;6.50;;;5.90;;
25687;SDS011;17407;51.120;3.702;2023-06-24T14:26:11;7.07;;;5.32;;
25687;SDS011;17407;51.120;3.702;2023-06-24T14:28:37;7.93;;;4.55;;
25687;SDS011;17407;51.120;3.702;2023-06-24T14:31:03;8.38;;;5.80;;
25687;SDS011;17407;51.120;3.702;2023-06-24T14:33:28;5.05;;;4.60;;
25687;SDS011;17407;51.120;3.702;2023-06-24T14:35:54;4.97;;;3.97;;
25687;SDS011;17407;51.120;3.702;2023-06-24T14:38:20;4.97;;;4.25;;
25687;SDS011;17407;51.120;3.702;2023-06-24T14:40:46;4.97;;;4.47;;
25687;SDS011;17407;51.120;3.702;2023-06-24T14:43:11;4.53;;;4.00;;
25687;SDS011;17407;51.120;3.702;2023-06-24T14:45:37;7.40;;;5.32;;
25687;SDS011;17407;51.120;3.702;2023-06-24T14:48:03;8.43;;;5.53;;
25687;SDS011;17407;51.120;3.702;2023-06-24T14:50:28;5.65;;;5.15;;
25687;SDS011;17407;51.120;3.702;2023-06-24T14:52:54;7.00;;;5.57;;
25687;SDS011;17407;51.120;3.702;2023-06-24T14:55:19;5.30;;;4.85;;
25687;SDS011;17407;51.120;3.702;2023-06-24T14:57:45;5.95;;;5.18;;
25687;SDS011;17407;51.120;3.702;2023-06-24T15:00:11;5.25;;;4.30;;
25687;SDS011;17407;51.120;3.702;2023-06-24T15:02:37;6.10;;;5.60;;
25687;SDS011;17407;51.120;3.702;2023-06-24T15:05:03;5.07;;;4.50;;
25687;SDS011;17407;51.120;3.702;2023-06-24T15:07:29;10.35;;;5.18;;